Marion Reef, Australia
Current Conditions -  °F | °C
As of 11:00 AM on Saturday 01 Nov 2014 (Local Time) from YBHM Reporting Station
Clear Clear  
Wind Chill: 81°   Ceiling: Unl
Heat Index: 82°   Visibility: 6mi
Dew Point: 64°   Wind: 14mph
Humidity: 58%   Direction: 110°ESE
Pressure: 29.97"   Gusts: NA
Location:  19.08°S, 152.38°E
Report Text: YBHM 010100Z AUTO 11012KT 9999 // NCD 27/18 Q1015
Loading
Personal Weather Stations






























Interactive Weather Map
Tropical Storm Tracking
New forecast layout! Learn more

10-Day Weather Forecast

Advertisements
Track Severe Weather on mobile